Latest Weather Observations for Halls Creek

IDW60801

Issued at 2:05 pm WST Sunday 31 August 2014 (issued every 30 minutes, with the page automatically refreshed every 10 minutes)

About weather observations | Map of weather stations | Latest weather observations for WA | Other Formats
Station Details ID: 002012 Name: HALLS CREEK AIRPORT Lat: -18.23 Lon: 127.66 Height: 422.0 m
Data from the previous 72 hours. | See also: Recent months at Halls Creek
Date/Time
WST
Temp
°C
App
Temp
°C
Dew
Point
Rel
Hum
%
Delta-T
°C
Wind Press
QNH
hPa
Press
MSL
hPa
Rain
since 9 am
mm
Dir
 
Spd
km/h
Gust
km/h
Spd
kts
Gust
kts
31/02:00pm 30.4 25.4 -14.3 5 17.1 ENE 9 24 5 13 1014.6 - 0.0
31/01:30pm 30.4 25.2 -16.6 4 17.3 ENE 9 26 5 14 1014.8 - 0.0
31/01:00pm 29.8 24.3 -15.8 4 16.9 E 11 26 6 14 1015.3 - 0.0
31/12:30pm 29.8 23.9 -15.9 4 16.9 E 13 32 7 17 1015.7 - 0.0
31/12:00pm 29.4 23.6 -15.0 5 16.6 ENE 13 32 7 17 1016.3 1014.4 0.0
31/11:30am 28.4 22.6 -13.5 5 15.9 E 13 26 7 14 1016.9 - 0.0
31/11:00am 28.7 23.4 -12.9 6 16.0 E 11 26 6 14 1017.3 - 0.0
31/10:30am 28.2 22.1 -13.7 5 15.8 E 15 35 8 19 1017.9 - 0.0
31/10:00am 27.5 21.5 -11.7 7 15.2 E 15 28 8 15 1018.2 - 0.0
31/09:30am 26.8 20.4 -12.4 7 14.9 E 17 30 9 16 1018.5 - 0.0
31/09:00am 26.4 20.8 -10.8 8 14.5 E 13 26 7 14 1018.7 1016.8 0.0
31/08:30am 24.8 20.6 -7.8 11 13.2 ENE 7 13 4 7 1019.0 - 0.0
31/08:00am 22.6 19.1 -6.3 14 11.8 ENE 4 11 2 6 1019.2 - 0.0
31/07:30am 20.2 16.4 -5.5 17 10.4 SE 6 7 3 4 1019.0 - 0.0
31/07:00am 18.6 15.7 -4.1 21 9.3 E 2 6 1 3 1018.8 - 0.0
31/06:30am 15.9 13.6 -2.1 29 7.5 CALM 0 2 0 1 1018.4 - 0.0
31/06:00am 13.7 11.0 -2.7 32 6.6 SE 2 2 1 1 1018.1 1016.2 0.0
31/05:30am 12.9 10.0 -1.1 38 5.8 ESE 4 4 2 2 1017.8 - 0.0
31/05:00am 13.4 10.3 -2.5 33 6.4 SE 4 6 2 3 1017.4 - 0.0
31/04:30am 13.8 11.1 -2.5 32 6.6 ESE 2 4 1 2 1017.0 - 0.0
31/04:00am 14.2 11.3 -3.8 28 7.1 E 2 4 1 2 1016.9 - 0.0
31/03:30am 14.7 11.8 -4.5 26 7.5 ENE 2 4 1 2 1016.8 - 0.0
31/03:00am 14.3 11.4 -4.0 28 7.2 ENE 2 4 1 2 1016.6 1014.7 0.0
31/02:30am 14.7 11.9 -3.6 28 7.3 ENE 2 4 1 2 1016.6 - 0.0
31/02:00am 14.5 12.1 -3.2 29 7.1 CALM 0 2 0 1 1016.6 - 0.0
31/01:30am 15.9 12.6 -4.1 25 8.0 S 4 6 2 3 1016.7 - 0.0
31/01:00am 14.8 11.7 -2.6 30 7.1 S 4 4 2 2 1016.7 - 0.0
31/12:30am 16.9 14.5 -3.3 25 8.3 CALM 0 2 0 1 1016.8 - 0.0
31/12:00am 16.8 14.0 -3.1 25 8.2 N 2 4 1 2 1017.0 1015.2 0.0
 
Date/Time
WST
Temp
°C
App
Temp
°C
Dew
Point
Rel
Hum
%
Delta-T
°C
Wind Press
QNH
hPa
Press
MSL
hPa
Rain
since 9 am
mm
Dir
 
Spd
km/h
Gust
km/h
Spd
kts
Gust
kts
30/11:30pm 18.0 15.1 -4.5 21 9.1 SSW 2 4 1 2 1017.2 - 0.0
30/11:00pm 18.7 15.7 -5.2 19 9.6 S 2 4 1 2 1017.3 - 0.0
30/10:30pm 17.8 15.4 -3.2 23 8.7 CALM 0 2 0 1 1017.4 - 0.0
30/10:00pm 18.6 16.2 -3.1 22 9.1 CALM 0 2 0 1 1017.4 - 0.0
30/09:30pm 18.7 16.2 -4.3 20 9.4 CALM 0 2 0 1 1017.6 - 0.0
30/09:00pm 19.3 16.5 -2.9 22 9.4 E 2 4 1 2 1017.6 1015.7 0.0
30/08:30pm 19.7 16.7 -2.1 23 9.4 SE 4 4 2 2 1017.6 - 0.0
30/08:00pm 20.2 17.3 -1.4 23 9.5 ESE 4 6 2 3 1017.4 - 0.0
30/07:30pm 21.4 18.6 -3.0 19 10.5 SE 2 4 1 2 1017.3 - 0.0
30/07:00pm 22.1 19.0 -2.7 19 10.8 ESE 4 6 2 3 1017.0 - 0.0
30/06:30pm 22.4 19.2 -3.7 17 11.2 SSE 4 7 2 4 1016.8 - 0.0
30/06:00pm 24.5 21.5 -1.8 17 11.9 ENE 4 6 2 3 1016.4 1014.5 0.0
30/05:30pm 26.0 22.3 -5.0 12 13.4 E 6 9 3 5 1016.2 - 0.0
30/05:00pm 27.4 22.6 -10.4 7 15.0 E 9 19 5 10 1016.1 - 0.0
30/04:30pm 28.4 23.6 -10.0 7 15.5 E 9 19 5 10 1015.9 - 0.0
30/04:00pm 28.8 23.3 -9.8 7 15.7 SE 13 22 7 12 1015.6 - 0.0
30/03:30pm 29.1 24.4 -9.3 7 15.8 E 9 22 5 12 1015.6 - 0.0
30/03:00pm 29.7 25.4 -9.1 7 16.1 SE 7 17 4 9 1015.5 1013.6 0.0
30/02:30pm 29.7 24.9 -10.6 6 16.3 ENE 9 32 5 17 1015.5 - 0.0
30/02:00pm 30.0 24.4 -10.9 6 16.5 ESE 13 28 7 15 1015.9 - 0.0
30/01:30pm 29.3 24.3 -8.6 8 15.8 E 11 26 6 14 1016.2 - 0.0
30/01:00pm 28.6 22.6 -10.8 7 15.7 ENE 15 26 8 14 1016.6 - 0.0
30/12:30pm 28.4 23.8 -7.9 9 15.2 ESE 9 28 5 15 1017.0 - 0.0
30/12:00pm 28.5 22.6 -10.4 7 15.6 E 15 33 8 18 1017.6 1015.7 0.0
30/11:30am 28.9 24.2 -8.8 8 15.6 E 9 26 5 14 1018.1 - 0.0
30/11:00am 28.0 23.4 -8.1 9 15.0 ENE 9 20 5 11 1018.6 - 0.0
30/10:30am 27.5 21.6 -9.4 8 14.9 ESE 15 28 8 15 1019.3 - 0.0
30/10:00am 27.7 22.7 -8.6 8 14.9 E 11 22 6 12 1019.7 - 0.0
30/09:30am 26.2 21.3 -7.5 10 13.9 E 11 22 6 12 1020.1 - 0.0
30/09:00am 24.9 19.1 -8.1 10 13.3 ESE 15 26 8 14 1020.5 1018.6 0.0
30/08:30am 24.6 20.1 -6.6 12 12.9 ESE 9 19 5 10 1020.6 - 0.0
30/08:00am 22.6 18.1 -7.0 13 11.9 ESE 9 19 5 10 1020.5 - 0.0
30/07:30am 21.3 17.2 -6.2 15 11.1 SE 7 15 4 8 1020.2 - 0.0
30/07:00am 18.5 15.2 -4.8 20 9.4 E 4 7 2 4 1019.9 - 0.0
30/06:30am 16.1 13.7 -2.9 27 7.8 CALM 0 2 0 1 1019.6 - 0.0
30/06:00am 13.4 11.0 -3.3 31 6.6 CALM 0 0 0 0 1019.3 1017.5 0.0
30/05:30am 12.9 10.1 -3.4 32 6.4 ESE 2 4 1 2 1019.1 - 0.0
30/05:00am 13.1 10.3 -3.4 31 6.5 ESE 2 4 1 2 1018.8 - 0.0
30/04:30am 13.1 10.3 -3.0 32 6.4 SSE 2 6 1 3 1018.4 - 0.0
30/04:00am 13.5 10.3 -3.1 31 6.6 ESE 4 6 2 3 1018.2 - 0.0
30/03:30am 14.1 10.9 -3.6 29 7.0 ESE 4 7 2 4 1018.1 - 0.0
30/03:00am 14.4 11.3 -2.6 31 6.9 ESE 4 6 2 3 1018.1 1016.2 0.0
30/02:30am 14.1 11.1 -1.6 34 6.5 E 4 6 2 3 1018.2 - 0.0
30/02:00am 14.7 11.9 -3.6 28 7.3 E 2 4 1 2 1018.5 - 0.0
30/01:30am 15.8 12.5 -4.4 24 8.0 SE 4 7 2 4 1018.5 - 0.0
30/01:00am 16.2 12.7 -5.8 21 8.5 ESE 4 7 2 4 1018.6 - 0.0
30/12:30am 15.3 12.5 -3.3 27 7.5 SE 2 6 1 3 1018.7 - 0.0
30/12:00am 15.7 12.8 -4.6 24 8.0 ESE 2 6 1 3 1019.0 1017.2 0.0
 
Date/Time
WST
Temp
°C
App
Temp
°C
Dew
Point
Rel
Hum
%
Delta-T
°C
Wind Press
QNH
hPa
Press
MSL
hPa
Rain
since 9 am
mm
Dir
 
Spd
km/h
Gust
km/h
Spd
kts
Gust
kts
29/11:30pm 16.4 13.4 -4.9 23 8.4 SE 2 6 1 3 1019.0 - 0.0
29/11:00pm 16.5 13.3 -3.8 24 8.2 ESE 4 6 2 3 1019.0 - 0.0
29/10:30pm 17.9 14.4 -6.7 18 9.5 ESE 4 6 2 3 1018.8 - 0.0
29/10:00pm 17.4 14.6 -3.2 24 8.5 SSE 2 4 1 2 1018.7 - 0.0
29/09:30pm 18.2 14.9 -4.5 21 9.2 SSE 4 4 2 2 1018.6 - 0.0
29/09:00pm 18.7 15.8 -4.3 20 9.4 SE 2 4 1 2 1018.6 1016.7 0.0
29/08:30pm 19.2 16.3 -4.0 20 9.6 SE 2 4 1 2 1018.5 - 0.0
29/08:00pm 19.7 16.5 -3.3 21 9.7 ESE 4 6 2 3 1018.3 - 0.0
29/07:30pm 20.6 17.4 -3.5 19 10.2 SE 4 6 2 3 1018.0 - 0.0
29/07:00pm 21.4 17.9 -6.4 15 11.2 E 4 7 2 4 1017.6 - 0.0
29/06:30pm 21.5 18.2 -4.1 17 10.8 ESE 4 6 2 3 1017.1 - 0.0
29/06:00pm 22.6 19.5 -2.8 18 11.1 SE 4 6 2 3 1016.8 1015.0 0.0
29/05:30pm 24.6 21.6 -5.4 13 12.7 ENE 2 7 1 4 1016.6 - 0.0
29/05:00pm 26.7 22.2 -11.8 7 14.8 ENE 7 15 4 8 1016.2 - 0.0
29/04:30pm 27.6 23.0 -13.8 6 15.5 E 7 19 4 10 1016.0 - 0.0
29/04:00pm 28.1 22.6 -16.2 4 16.0 E 11 24 6 13 1015.9 - 0.0
29/03:30pm 28.2 23.5 -14.5 5 15.9 NNE 7 17 4 9 1015.9 - 0.0
29/03:00pm 28.8 24.3 -12.3 6 16.0 E 7 20 4 11 1016.1 1014.2 0.0
29/02:30pm 28.6 24.1 -12.4 6 15.9 ENE 7 24 4 13 1016.2 - 0.0
29/02:00pm 28.1 23.2 -11.4 7 15.5 E 9 17 5 9 1016.5 - 0.0
29/01:30pm 28.4 23.9 -11.7 6 15.7 ENE 7 22 4 12 1016.9 - 0.0
29/01:00pm 28.4 23.8 -13.5 5 15.9 E 7 19 4 10 1017.3 - 0.0
29/12:30pm 28.0 23.8 -10.3 7 15.3 NE 6 17 3 9 1017.9 - 0.0
29/12:00pm 26.9 21.6 -12.8 6 15.0 ENE 11 24 6 13 1018.6 1016.7 0.0
29/11:30am 26.7 21.5 -11.2 7 14.7 E 11 22 6 12 1019.3 - 0.0
29/11:00am 26.6 21.2 -13.4 6 14.9 E 11 22 6 12 1019.9 - 0.0
29/10:30am 26.4 20.8 -10.9 8 14.5 E 13 26 7 14 1020.6 - 0.0
29/10:00am 25.3 19.7 -10.9 8 13.9 E 13 26 7 14 1021.0 - 0.0
29/09:30am 24.5 19.0 -10.3 9 13.4 E 13 26 7 14 1021.2 - 0.0
29/09:00am 23.8 18.3 -10.0 10 13.0 E 13 26 7 14 1021.2 1019.4 0.0
29/08:30am 22.5 17.8 -9.2 11 12.2 ESE 9 20 5 11 1021.1 - 0.0
29/08:00am 21.0 16.3 -8.9 12 11.4 E 9 19 5 10 1021.2 - 0.0
29/07:30am 19.3 14.6 -9.2 13 10.6 ESE 9 15 5 8 1020.9 - 0.0
29/07:00am 17.9 13.6 -8.5 16 9.8 ESE 7 13 4 7 1020.5 - 0.0
29/06:30am 15.1 12.0 -6.0 23 8.0 ESE 2 4 1 2 1019.9 - 0.0
29/06:00am 12.5 9.5 -5.0 29 6.6 E 2 6 1 3 1019.6 1017.8 0.0
29/05:30am 12.6 8.6 -7.2 24 7.1 ESE 6 7 3 4 1019.3 - 0.0
29/05:00am 12.1 8.7 -5.4 29 6.5 E 4 7 2 4 1019.2 - 0.0
29/04:30am 12.1 9.1 -5.4 29 6.5 SE 2 7 1 4 1019.0 - 0.0
29/04:00am 12.2 9.1 -6.5 26 6.8 ESE 2 4 1 2 1018.8 - 0.0
29/03:30am 12.5 9.5 -5.0 29 6.6 ESE 2 6 1 3 1018.8 - 0.0
29/03:00am 13.0 9.7 -4.5 29 6.7 ESE 4 6 2 3 1018.8 1017.0 0.0
29/02:30am 14.0 10.7 -8.0 21 7.9 S 2 6 1 3 1018.8 - 0.0
29/02:00am 14.8 11.0 -10.0 17 8.6 S 4 4 2 2 1018.9 - 0.0
29/01:30am 13.8 10.7 -6.0 25 7.4 ESE 2 6 1 3 1019.0 - 0.0
29/01:00am 14.2 11.0 -7.5 21 7.9 SE 2 4 1 2 1018.9 - 0.0
29/12:30am 14.8 11.3 -6.1 23 7.9 SE 4 6 2 3 1018.9 - 0.0
29/12:00am 14.6 11.0 -7.6 21 8.1 SE 4 7 2 4 1019.1 1017.3 0.0
 
Date/Time
WST
Temp
°C
App
Temp
°C
Dew
Point
Rel
Hum
%
Delta-T
°C
Wind Press
QNH
hPa
Press
MSL
hPa
Rain
since 9 am
mm
Dir
 
Spd
km/h
Gust
km/h
Spd
kts
Gust
kts
28/11:30pm 15.2 11.7 -6.7 21 8.2 SE 4 6 2 3 1019.2 - 0.0
28/11:00pm 15.8 11.6 -10.3 15 9.1 SE 6 7 3 4 1019.4 - 0.0
28/10:30pm 16.0 12.4 -7.4 19 8.7 SE 4 6 2 3 1019.5 - 0.0
28/10:00pm 16.8 13.1 -8.6 17 9.3 SE 4 7 2 4 1019.4 - 0.0
28/09:30pm 16.5 12.9 -7.7 18 9.0 SE 4 6 2 3 1019.3 - 0.0
28/09:00pm 16.8 13.3 -5.9 20 8.8 SSE 4 6 2 3 1019.2 1017.4 0.0
28/08:30pm 18.1 14.6 -6.8 18 9.6 SE 4 6 2 3 1018.9 - 0.0
28/08:00pm 18.8 15.2 -7.6 16 10.1 SE 4 7 2 4 1018.9 - 0.0
28/07:30pm 18.8 15.5 -4.1 21 9.4 SSE 4 6 2 3 1018.8 - 0.0
28/07:00pm 20.3 16.8 -6.2 16 10.6 ESE 4 6 2 3 1018.3 - 0.0
28/06:30pm 21.0 17.7 -4.4 18 10.6 ESE 4 6 2 3 1017.6 - 0.0
28/06:00pm 22.3 18.1 -9.7 11 12.2 ESE 6 7 3 4 1017.0 1015.2 0.0
28/05:30pm 23.9 19.3 -13.4 7 13.5 ESE 7 13 4 7 1016.6 - 0.0
28/05:00pm 25.7 21.1 -13.0 7 14.4 E 7 15 4 8 1016.4 - 0.0
28/04:30pm 26.9 21.4 -16.7 5 15.4 ESE 11 22 6 12 1016.2 - 0.0
28/04:00pm 27.3 22.2 -15.4 5 15.5 E 9 19 5 10 1016.0 - 0.0
28/03:30pm 27.6 22.0 -18.3 4 15.9 ENE 11 22 6 12 1016.0 - 0.0
28/03:00pm 28.0 23.2 -16.9 4 16.0 ENE 7 17 4 9 1016.3 1014.4 0.0
28/02:30pm 27.4 21.8 -17.2 4 15.7 ESE 11 20 6 11 1016.6 - 0.0

Other Formats:

Comma delimited format used in spreadsheet applications
http://www.bom.gov.au/fwo/IDW60801/IDW60801.94212.axf

JavaScript Object Notation format (JSON) in row-major order
http://www.bom.gov.au/fwo/IDW60801/IDW60801.94212.json